Chimacum, Washington
Current Conditions -  °F | °C
As of 5:53 AM on Thursday 30 Oct 2014 (Local Time) from KPAE Reporting Station
Scattered Clouds Scattered Clouds  
Wind Chill: 57°   Ceiling: Unl
Heat Index: 57°   Visibility: 10mi
Dew Point: 44°   Wind: 7mph
Humidity: 62%   Direction: 110°ESE
Pressure: 29.91"   Gusts: NA
Location:  48.01°N, 122.77°W
Report Text: KPAE 301253Z AUTO 11006KT 10SM SCT100 14/07 A2991 RMK AO2 RAB22E31 SLP127 P0000 T01390067
Loading
Personal Weather Stations






























Interactive Weather Map
Tropical Storm Tracking
New forecast layout! Learn more

10-Day Weather Forecast

Advertisements
Track Severe Weather on mobile